sensor_id;sensor_type;location;lat;lon;timestamp;P1;durP1;ratioP1;P2;durP2;ratioP2
4650;SDS011;2338;49.602;8.722;2023-06-14T00:01:10;13.43;;;4.97;;
4650;SDS011;2338;49.602;8.722;2023-06-14T00:03:57;6.70;;;4.60;;
4650;SDS011;2338;49.602;8.722;2023-06-14T00:06:42;8.20;;;5.03;;
4650;SDS011;2338;49.602;8.722;2023-06-14T00:09:29;10.93;;;4.57;;
4650;SDS011;2338;49.602;8.722;2023-06-14T00:12:15;6.50;;;4.70;;
4650;SDS011;2338;49.602;8.722;2023-06-14T00:15:02;6.27;;;4.93;;
4650;SDS011;2338;49.602;8.722;2023-06-14T00:17:48;7.70;;;4.93;;
4650;SDS011;2338;49.602;8.722;2023-06-14T00:20:34;7.67;;;5.27;;
4650;SDS011;2338;49.602;8.722;2023-06-14T00:23:20;6.70;;;5.50;;
4650;SDS011;2338;49.602;8.722;2023-06-14T00:26:06;6.33;;;4.80;;
4650;SDS011;2338;49.602;8.722;2023-06-14T00:28:51;8.40;;;5.10;;
4650;SDS011;2338;49.602;8.722;2023-06-14T00:31:38;6.00;;;4.40;;
4650;SDS011;2338;49.602;8.722;2023-06-14T00:34:24;10.90;;;5.00;;
4650;SDS011;2338;49.602;8.722;2023-06-14T00:37:09;7.17;;;4.50;;
4650;SDS011;2338;49.602;8.722;2023-06-14T00:39:55;6.73;;;5.17;;
4650;SDS011;2338;49.602;8.722;2023-06-14T00:42:40;8.10;;;4.43;;
4650;SDS011;2338;49.602;8.722;2023-06-14T00:45:26;6.50;;;5.63;;
4650;SDS011;2338;49.602;8.722;2023-06-14T00:48:13;7.23;;;5.57;;
4650;SDS011;2338;49.602;8.722;2023-06-14T00:50:59;7.07;;;5.03;;
4650;SDS011;2338;49.602;8.722;2023-06-14T00:53:47;5.40;;;4.67;;
4650;SDS011;2338;49.602;8.722;2023-06-14T00:56:33;9.57;;;4.97;;
4650;SDS011;2338;49.602;8.722;2023-06-14T00:59:20;11.63;;;5.27;;
4650;SDS011;2338;49.602;8.722;2023-06-14T01:02:06;6.80;;;4.70;;
4650;SDS011;2338;49.602;8.722;2023-06-14T01:04:53;6.70;;;5.27;;
4650;SDS011;2338;49.602;8.722;2023-06-14T01:07:41;8.53;;;4.83;;
4650;SDS011;2338;49.602;8.722;2023-06-14T01:10:38;7.17;;;5.50;;
4650;SDS011;2338;49.602;8.722;2023-06-14T01:13:34;6.10;;;5.20;;
4650;SDS011;2338;49.602;8.722;2023-06-14T01:16:22;6.97;;;5.37;;
4650;SDS011;2338;49.602;8.722;2023-06-14T01:19:09;6.87;;;4.67;;
4650;SDS011;2338;49.602;8.722;2023-06-14T01:21:58;6.23;;;5.47;;
4650;SDS011;2338;49.602;8.722;2023-06-14T01:24:47;5.87;;;4.90;;
4650;SDS011;2338;49.602;8.722;2023-06-14T01:27:33;8.87;;;5.37;;
4650;SDS011;2338;49.602;8.722;2023-06-14T01:30:19;11.10;;;5.47;;
4650;SDS011;2338;49.602;8.722;2023-06-14T01:33:09;7.60;;;5.80;;
4650;SDS011;2338;49.602;8.722;2023-06-14T01:35:55;8.43;;;5.67;;
4650;SDS011;2338;49.602;8.722;2023-06-14T01:38:42;6.67;;;5.30;;
4650;SDS011;2338;49.602;8.722;2023-06-14T01:41:30;7.97;;;5.20;;
4650;SDS011;2338;49.602;8.722;2023-06-14T01:44:16;5.93;;;5.03;;
4650;SDS011;2338;49.602;8.722;2023-06-14T01:47:03;8.63;;;5.60;;
4650;SDS011;2338;49.602;8.722;2023-06-14T01:49:49;7.03;;;5.70;;
4650;SDS011;2338;49.602;8.722;2023-06-14T01:52:36;8.37;;;5.40;;
4650;SDS011;2338;49.602;8.722;2023-06-14T01:55:21;10.77;;;6.00;;
4650;SDS011;2338;49.602;8.722;2023-06-14T01:58:09;7.60;;;5.00;;
4650;SDS011;2338;49.602;8.722;2023-06-14T02:00:55;10.53;;;6.00;;
4650;SDS011;2338;49.602;8.722;2023-06-14T02:03:42;10.03;;;5.87;;
4650;SDS011;2338;49.602;8.722;2023-06-14T02:06:28;13.97;;;6.17;;
4650;SDS011;2338;49.602;8.722;2023-06-14T02:09:14;11.00;;;5.77;;
4650;SDS011;2338;49.602;8.722;2023-06-14T02:11:59;6.30;;;5.70;;
4650;SDS011;2338;49.602;8.722;2023-06-14T02:14:47;5.97;;;5.07;;
4650;SDS011;2338;49.602;8.722;2023-06-14T02:17:32;7.43;;;5.20;;
4650;SDS011;2338;49.602;8.722;2023-06-14T02:20:18;9.10;;;5.13;;
4650;SDS011;2338;49.602;8.722;2023-06-14T02:23:03;7.47;;;5.60;;
4650;SDS011;2338;49.602;8.722;2023-06-14T02:25:51;16.53;;;6.20;;
4650;SDS011;2338;49.602;8.722;2023-06-14T02:28:37;13.07;;;5.70;;
4650;SDS011;2338;49.602;8.722;2023-06-14T02:31:24;13.93;;;5.97;;
4650;SDS011;2338;49.602;8.722;2023-06-14T02:34:10;13.90;;;6.17;;
4650;SDS011;2338;49.602;8.722;2023-06-14T02:36:56;10.77;;;6.03;;
4650;SDS011;2338;49.602;8.722;2023-06-14T02:39:41;20.00;;;6.20;;
4650;SDS011;2338;49.602;8.722;2023-06-14T02:42:27;9.40;;;6.03;;
4650;SDS011;2338;49.602;8.722;2023-06-14T02:45:13;22.77;;;5.70;;
4650;SDS011;2338;49.602;8.722;2023-06-14T02:47:59;8.70;;;4.87;;
4650;SDS011;2338;49.602;8.722;2023-06-14T02:50:45;9.43;;;5.80;;
4650;SDS011;2338;49.602;8.722;2023-06-14T02:53:31;8.23;;;5.40;;
4650;SDS011;2338;49.602;8.722;2023-06-14T02:56:16;9.20;;;5.67;;
4650;SDS011;2338;49.602;8.722;2023-06-14T02:59:03;11.63;;;5.87;;
4650;SDS011;2338;49.602;8.722;2023-06-14T03:01:48;9.80;;;6.00;;
4650;SDS011;2338;49.602;8.722;2023-06-14T03:04:35;15.47;;;5.90;;
4650;SDS011;2338;49.602;8.722;2023-06-14T03:07:22;9.63;;;5.10;;
4650;SDS011;2338;49.602;8.722;2023-06-14T03:10:09;8.90;;;5.37;;
4650;SDS011;2338;49.602;8.722;2023-06-14T03:12:56;12.70;;;5.97;;
4650;SDS011;2338;49.602;8.722;2023-06-14T03:15:42;16.63;;;5.80;;
4650;SDS011;2338;49.602;8.722;2023-06-14T03:18:29;11.10;;;5.70;;
4650;SDS011;2338;49.602;8.722;2023-06-14T03:21:15;22.30;;;7.00;;
4650;SDS011;2338;49.602;8.722;2023-06-14T03:24:01;21.33;;;6.03;;
4650;SDS011;2338;49.602;8.722;2023-06-14T03:26:47;7.73;;;5.00;;
4650;SDS011;2338;49.602;8.722;2023-06-14T03:29:32;7.93;;;5.50;;
4650;SDS011;2338;49.602;8.722;2023-06-14T03:32:18;9.60;;;6.17;;
4650;SDS011;2338;49.602;8.722;2023-06-14T03:35:04;13.17;;;5.77;;
4650;SDS011;2338;49.602;8.722;2023-06-14T03:37:51;6.10;;;5.00;;
4650;SDS011;2338;49.602;8.722;2023-06-14T03:40:37;7.70;;;5.70;;
4650;SDS011;2338;49.602;8.722;2023-06-14T03:43:22;8.13;;;5.37;;
4650;SDS011;2338;49.602;8.722;2023-06-14T03:46:08;11.60;;;4.80;;
4650;SDS011;2338;49.602;8.722;2023-06-14T03:48:54;5.80;;;4.80;;
4650;SDS011;2338;49.602;8.722;2023-06-14T03:51:40;10.27;;;5.67;;
4650;SDS011;2338;49.602;8.722;2023-06-14T03:54:27;13.93;;;5.20;;
4650;SDS011;2338;49.602;8.722;2023-06-14T03:57:12;6.13;;;5.03;;
4650;SDS011;2338;49.602;8.722;2023-06-14T03:59:58;8.03;;;5.43;;
4650;SDS011;2338;49.602;8.722;2023-06-14T04:02:44;7.27;;;5.73;;
4650;SDS011;2338;49.602;8.722;2023-06-14T04:05:30;8.20;;;5.30;;
4650;SDS011;2338;49.602;8.722;2023-06-14T04:08:16;6.50;;;5.30;;
4650;SDS011;2338;49.602;8.722;2023-06-14T04:11:04;6.90;;;4.80;;
4650;SDS011;2338;49.602;8.722;2023-06-14T04:13:49;6.27;;;4.70;;
4650;SDS011;2338;49.602;8.722;2023-06-14T04:16:37;6.10;;;5.10;;
4650;SDS011;2338;49.602;8.722;2023-06-14T04:19:23;8.10;;;4.87;;
4650;SDS011;2338;49.602;8.722;2023-06-14T04:22:08;7.00;;;5.50;;
4650;SDS011;2338;49.602;8.722;2023-06-14T04:24:54;8.47;;;5.80;;
4650;SDS011;2338;49.602;8.722;2023-06-14T04:27:41;13.97;;;5.87;;
4650;SDS011;2338;49.602;8.722;2023-06-14T04:30:26;9.10;;;5.67;;
4650;SDS011;2338;49.602;8.722;2023-06-14T04:33:15;7.20;;;5.53;;
4650;SDS011;2338;49.602;8.722;2023-06-14T04:36:01;7.60;;;5.63;;
4650;SDS011;2338;49.602;8.722;2023-06-14T04:38:46;8.80;;;5.13;;
4650;SDS011;2338;49.602;8.722;2023-06-14T04:41:32;7.63;;;5.40;;
4650;SDS011;2338;49.602;8.722;2023-06-14T04:44:19;7.00;;;5.60;;
4650;SDS011;2338;49.602;8.722;2023-06-14T04:47:07;14.60;;;5.80;;
4650;SDS011;2338;49.602;8.722;2023-06-14T04:49:53;7.80;;;5.40;;
4650;SDS011;2338;49.602;8.722;2023-06-14T04:52:39;11.30;;;5.70;;
4650;SDS011;2338;49.602;8.722;2023-06-14T04:55:25;9.03;;;5.80;;
4650;SDS011;2338;49.602;8.722;2023-06-14T04:58:10;9.80;;;5.40;;
4650;SDS011;2338;49.602;8.722;2023-06-14T05:00:58;7.43;;;5.47;;
4650;SDS011;2338;49.602;8.722;2023-06-14T05:03:43;7.93;;;6.20;;
4650;SDS011;2338;49.602;8.722;2023-06-14T05:06:33;9.90;;;4.90;;
4650;SDS011;2338;49.602;8.722;2023-06-14T05:09:18;10.10;;;6.03;;
4650;SDS011;2338;49.602;8.722;2023-06-14T05:12:04;7.40;;;5.50;;
4650;SDS011;2338;49.602;8.722;2023-06-14T05:14:51;11.23;;;5.67;;
4650;SDS011;2338;49.602;8.722;2023-06-14T05:17:38;7.23;;;5.50;;
4650;SDS011;2338;49.602;8.722;2023-06-14T05:20:24;9.73;;;6.13;;
4650;SDS011;2338;49.602;8.722;2023-06-14T05:23:10;7.20;;;4.87;;
4650;SDS011;2338;49.602;8.722;2023-06-14T05:25:58;10.50;;;5.93;;
4650;SDS011;2338;49.602;8.722;2023-06-14T05:28:46;8.40;;;5.73;;
4650;SDS011;2338;49.602;8.722;2023-06-14T05:31:31;7.67;;;5.27;;
4650;SDS011;2338;49.602;8.722;2023-06-14T05:34:18;7.97;;;5.60;;
4650;SDS011;2338;49.602;8.722;2023-06-14T05:37:04;6.77;;;5.80;;
4650;SDS011;2338;49.602;8.722;2023-06-14T05:39:50;9.60;;;5.57;;
4650;SDS011;2338;49.602;8.722;2023-06-14T05:42:35;7.77;;;5.20;;
4650;SDS011;2338;49.602;8.722;2023-06-14T05:45:21;8.37;;;5.10;;
4650;SDS011;2338;49.602;8.722;2023-06-14T05:48:06;7.70;;;5.63;;
4650;SDS011;2338;49.602;8.722;2023-06-14T05:50:53;8.77;;;5.30;;
4650;SDS011;2338;49.602;8.722;2023-06-14T05:53:39;5.97;;;4.93;;
4650;SDS011;2338;49.602;8.722;2023-06-14T05:56:24;5.83;;;4.67;;
4650;SDS011;2338;49.602;8.722;2023-06-14T05:59:10;8.23;;;5.93;;
4650;SDS011;2338;49.602;8.722;2023-06-14T06:01:55;6.00;;;5.40;;
4650;SDS011;2338;49.602;8.722;2023-06-14T06:04:41;10.73;;;5.10;;
4650;SDS011;2338;49.602;8.722;2023-06-14T06:07:28;6.33;;;4.80;;
4650;SDS011;2338;49.602;8.722;2023-06-14T06:10:13;11.63;;;5.33;;
4650;SDS011;2338;49.602;8.722;2023-06-14T06:12:59;10.30;;;5.17;;
4650;SDS011;2338;49.602;8.722;2023-06-14T06:15:45;10.10;;;5.90;;
4650;SDS011;2338;49.602;8.722;2023-06-14T06:18:30;7.80;;;5.17;;
4650;SDS011;2338;49.602;8.722;2023-06-14T06:21:16;5.77;;;4.90;;
4650;SDS011;2338;49.602;8.722;2023-06-14T06:24:04;10.90;;;5.13;;
4650;SDS011;2338;49.602;8.722;2023-06-14T06:26:49;8.17;;;5.23;;
4650;SDS011;2338;49.602;8.722;2023-06-14T06:29:35;15.13;;;5.17;;
4650;SDS011;2338;49.602;8.722;2023-06-14T06:32:21;8.07;;;5.10;;
4650;SDS011;2338;49.602;8.722;2023-06-14T06:35:07;14.50;;;5.20;;
4650;SDS011;2338;49.602;8.722;2023-06-14T06:37:54;9.30;;;5.40;;
4650;SDS011;2338;49.602;8.722;2023-06-14T06:40:41;10.47;;;5.90;;
4650;SDS011;2338;49.602;8.722;2023-06-14T06:43:26;11.63;;;5.67;;
4650;SDS011;2338;49.602;8.722;2023-06-14T06:46:12;11.50;;;5.30;;
4650;SDS011;2338;49.602;8.722;2023-06-14T06:48:57;8.53;;;5.30;;
4650;SDS011;2338;49.602;8.722;2023-06-14T06:51:43;9.03;;;5.20;;
4650;SDS011;2338;49.602;8.722;2023-06-14T06:54:44;5.73;;;4.77;;
4650;SDS011;2338;49.602;8.722;2023-06-14T06:57:31;8.23;;;4.43;;
4650;SDS011;2338;49.602;8.722;2023-06-14T07:00:17;6.37;;;4.43;;
4650;SDS011;2338;49.602;8.722;2023-06-14T07:03:03;9.53;;;4.90;;
4650;SDS011;2338;49.602;8.722;2023-06-14T07:05:49;7.97;;;4.57;;
4650;SDS011;2338;49.602;8.722;2023-06-14T07:08:34;6.20;;;4.27;;
4650;SDS011;2338;49.602;8.722;2023-06-14T07:11:22;12.37;;;5.40;;
4650;SDS011;2338;49.602;8.722;2023-06-14T07:14:09;7.73;;;4.70;;
4650;SDS011;2338;49.602;8.722;2023-06-14T07:16:54;6.13;;;4.43;;
4650;SDS011;2338;49.602;8.722;2023-06-14T07:19:40;6.43;;;4.90;;
4650;SDS011;2338;49.602;8.722;2023-06-14T07:22:26;9.10;;;4.43;;
4650;SDS011;2338;49.602;8.722;2023-06-14T07:25:12;11.90;;;4.53;;
4650;SDS011;2338;49.602;8.722;2023-06-14T07:27:58;6.80;;;4.93;;
4650;SDS011;2338;49.602;8.722;2023-06-14T07:30:44;6.73;;;4.87;;
4650;SDS011;2338;49.602;8.722;2023-06-14T07:33:30;5.80;;;4.53;;
4650;SDS011;2338;49.602;8.722;2023-06-14T07:36:16;5.43;;;4.53;;
4650;SDS011;2338;49.602;8.722;2023-06-14T07:39:01;6.27;;;4.47;;
4650;SDS011;2338;49.602;8.722;2023-06-14T07:41:48;7.70;;;4.90;;
4650;SDS011;2338;49.602;8.722;2023-06-14T07:44:33;9.93;;;4.63;;
4650;SDS011;2338;49.602;8.722;2023-06-14T07:47:21;8.17;;;4.50;;
4650;SDS011;2338;49.602;8.722;2023-06-14T07:50:06;7.47;;;4.97;;
4650;SDS011;2338;49.602;8.722;2023-06-14T07:52:52;5.17;;;4.60;;
4650;SDS011;2338;49.602;8.722;2023-06-14T07:55:38;8.10;;;4.70;;
4650;SDS011;2338;49.602;8.722;2023-06-14T07:58:23;10.13;;;4.80;;
4650;SDS011;2338;49.602;8.722;2023-06-14T08:01:09;8.60;;;4.77;;
4650;SDS011;2338;49.602;8.722;2023-06-14T08:03:56;9.43;;;5.33;;
4650;SDS011;2338;49.602;8.722;2023-06-14T08:06:41;10.33;;;5.03;;
4650;SDS011;2338;49.602;8.722;2023-06-14T08:09:27;11.43;;;5.17;;
4650;SDS011;2338;49.602;8.722;2023-06-14T08:12:13;12.53;;;4.70;;
4650;SDS011;2338;49.602;8.722;2023-06-14T08:14:59;8.00;;;4.90;;
4650;SDS011;2338;49.602;8.722;2023-06-14T08:17:45;8.03;;;5.27;;
4650;SDS011;2338;49.602;8.722;2023-06-14T08:20:32;6.67;;;5.00;;
4650;SDS011;2338;49.602;8.722;2023-06-14T08:23:18;6.37;;;4.70;;
4650;SDS011;2338;49.602;8.722;2023-06-14T08:26:04;8.27;;;4.70;;
4650;SDS011;2338;49.602;8.722;2023-06-14T08:28:50;10.07;;;4.73;;
4650;SDS011;2338;49.602;8.722;2023-06-14T08:31:35;9.20;;;5.17;;
4650;SDS011;2338;49.602;8.722;2023-06-14T08:34:21;11.23;;;5.50;;
4650;SDS011;2338;49.602;8.722;2023-06-14T08:37:08;12.20;;;5.10;;
4650;SDS011;2338;49.602;8.722;2023-06-14T08:39:54;7.40;;;5.00;;
4650;SDS011;2338;49.602;8.722;2023-06-14T08:42:39;12.80;;;5.17;;
4650;SDS011;2338;49.602;8.722;2023-06-14T08:45:26;9.07;;;4.90;;
4650;SDS011;2338;49.602;8.722;2023-06-14T08:48:11;6.30;;;4.57;;
4650;SDS011;2338;49.602;8.722;2023-06-14T08:51:00;7.30;;;4.87;;
4650;SDS011;2338;49.602;8.722;2023-06-14T08:53:51;6.17;;;4.37;;
4650;SDS011;2338;49.602;8.722;2023-06-14T08:56:40;7.10;;;4.53;;
4650;SDS011;2338;49.602;8.722;2023-06-14T08:59:27;9.90;;;4.70;;
4650;SDS011;2338;49.602;8.722;2023-06-14T09:02:15;5.57;;;4.10;;
4650;SDS011;2338;49.602;8.722;2023-06-14T09:05:01;7.73;;;4.20;;
4650;SDS011;2338;49.602;8.722;2023-06-14T09:07:47;7.70;;;4.30;;
4650;SDS011;2338;49.602;8.722;2023-06-14T09:10:35;10.33;;;4.70;;
4650;SDS011;2338;49.602;8.722;2023-06-14T09:13:20;6.53;;;4.30;;
4650;SDS011;2338;49.602;8.722;2023-06-14T09:16:06;5.63;;;3.97;;
4650;SDS011;2338;49.602;8.722;2023-06-14T09:18:53;6.80;;;3.87;;
4650;SDS011;2338;49.602;8.722;2023-06-14T09:21:39;6.77;;;3.93;;
4650;SDS011;2338;49.602;8.722;2023-06-14T09:24:25;4.40;;;3.47;;
4650;SDS011;2338;49.602;8.722;2023-06-14T09:27:15;6.10;;;4.30;;
4650;SDS011;2338;49.602;8.722;2023-06-14T09:30:02;5.83;;;3.83;;
4650;SDS011;2338;49.602;8.722;2023-06-14T09:32:48;5.83;;;3.50;;
4650;SDS011;2338;49.602;8.722;2023-06-14T09:35:34;5.70;;;3.43;;
4650;SDS011;2338;49.602;8.722;2023-06-14T09:38:20;11.53;;;4.30;;
4650;SDS011;2338;49.602;8.722;2023-06-14T09:41:05;4.57;;;3.60;;
4650;SDS011;2338;49.602;8.722;2023-06-14T09:43:52;5.03;;;3.70;;
4650;SDS011;2338;49.602;8.722;2023-06-14T09:46:41;7.20;;;4.33;;
4650;SDS011;2338;49.602;8.722;2023-06-14T09:49:26;5.07;;;4.00;;
4650;SDS011;2338;49.602;8.722;2023-06-14T09:52:13;9.83;;;4.00;;
4650;SDS011;2338;49.602;8.722;2023-06-14T09:55:00;6.20;;;3.63;;
4650;SDS011;2338;49.602;8.722;2023-06-14T09:57:52;6.07;;;3.70;;
4650;SDS011;2338;49.602;8.722;2023-06-14T10:00:41;4.60;;;3.23;;
4650;SDS011;2338;49.602;8.722;2023-06-14T10:03:28;4.80;;;3.23;;
4650;SDS011;2338;49.602;8.722;2023-06-14T10:06:14;5.67;;;3.60;;
4650;SDS011;2338;49.602;8.722;2023-06-14T10:09:00;4.27;;;3.37;;
4650;SDS011;2338;49.602;8.722;2023-06-14T10:11:49;4.50;;;3.60;;
4650;SDS011;2338;49.602;8.722;2023-06-14T10:14:35;4.70;;;3.90;;
4650;SDS011;2338;49.602;8.722;2023-06-14T10:17:25;9.90;;;3.87;;
4650;SDS011;2338;49.602;8.722;2023-06-14T10:20:18;8.90;;;4.47;;
4650;SDS011;2338;49.602;8.722;2023-06-14T10:23:12;11.40;;;3.90;;
4650;SDS011;2338;49.602;8.722;2023-06-14T10:26:01;7.87;;;4.20;;
4650;SDS011;2338;49.602;8.722;2023-06-14T10:28:55;5.50;;;3.60;;
4650;SDS011;2338;49.602;8.722;2023-06-14T10:31:43;4.97;;;3.90;;
4650;SDS011;2338;49.602;8.722;2023-06-14T10:34:30;7.90;;;3.90;;
4650;SDS011;2338;49.602;8.722;2023-06-14T10:37:16;8.80;;;3.80;;
4650;SDS011;2338;49.602;8.722;2023-06-14T10:40:02;4.50;;;3.83;;
4650;SDS011;2338;49.602;8.722;2023-06-14T10:42:51;6.80;;;3.83;;
4650;SDS011;2338;49.602;8.722;2023-06-14T10:45:36;6.67;;;4.30;;
4650;SDS011;2338;49.602;8.722;2023-06-14T10:48:42;5.77;;;4.40;;
4650;SDS011;2338;49.602;8.722;2023-06-14T10:51:29;7.50;;;3.90;;
4650;SDS011;2338;49.602;8.722;2023-06-14T10:54:29;5.87;;;3.47;;
4650;SDS011;2338;49.602;8.722;2023-06-14T10:57:14;6.80;;;3.80;;
4650;SDS011;2338;49.602;8.722;2023-06-14T11:00:01;9.33;;;4.40;;
4650;SDS011;2338;49.602;8.722;2023-06-14T11:03:11;4.77;;;4.23;;
4650;SDS011;2338;49.602;8.722;2023-06-14T11:06:21;4.57;;;3.67;;
4650;SDS011;2338;49.602;8.722;2023-06-14T11:12:37;6.20;;;4.10;;
4650;SDS011;2338;49.602;8.722;2023-06-14T11:15:27;6.53;;;3.93;;
4650;SDS011;2338;49.602;8.722;2023-06-14T11:18:14;5.23;;;4.47;;
4650;SDS011;2338;49.602;8.722;2023-06-14T11:21:01;5.93;;;3.93;;
4650;SDS011;2338;49.602;8.722;2023-06-14T11:23:50;9.70;;;4.77;;
4650;SDS011;2338;49.602;8.722;2023-06-14T11:26:38;5.63;;;4.53;;
4650;SDS011;2338;49.602;8.722;2023-06-14T11:29:24;9.43;;;4.37;;
4650;SDS011;2338;49.602;8.722;2023-06-14T11:32:10;6.80;;;4.67;;
4650;SDS011;2338;49.602;8.722;2023-06-14T11:34:57;6.13;;;4.10;;
4650;SDS011;2338;49.602;8.722;2023-06-14T11:37:43;5.50;;;3.90;;
4650;SDS011;2338;49.602;8.722;2023-06-14T11:40:29;5.07;;;4.10;;
4650;SDS011;2338;49.602;8.722;2023-06-14T11:43:15;7.13;;;3.67;;
4650;SDS011;2338;49.602;8.722;2023-06-14T11:46:01;3.93;;;3.23;;
4650;SDS011;2338;49.602;8.722;2023-06-14T11:48:47;9.00;;;3.27;;
4650;SDS011;2338;49.602;8.722;2023-06-14T11:51:32;5.40;;;3.60;;
4650;SDS011;2338;49.602;8.722;2023-06-14T11:54:19;5.30;;;3.30;;
4650;SDS011;2338;49.602;8.722;2023-06-14T11:57:04;5.57;;;3.70;;
4650;SDS011;2338;49.602;8.722;2023-06-14T11:59:54;7.50;;;4.10;;
4650;SDS011;2338;49.602;8.722;2023-06-14T12:02:40;7.33;;;4.10;;
4650;SDS011;2338;49.602;8.722;2023-06-14T12:05:27;6.13;;;3.80;;
4650;SDS011;2338;49.602;8.722;2023-06-14T12:08:12;10.03;;;3.40;;
4650;SDS011;2338;49.602;8.722;2023-06-14T12:11:01;5.83;;;3.67;;
4650;SDS011;2338;49.602;8.722;2023-06-14T12:13:48;6.97;;;4.40;;
4650;SDS011;2338;49.602;8.722;2023-06-14T12:16:37;4.67;;;3.70;;
4650;SDS011;2338;49.602;8.722;2023-06-14T12:19:25;5.07;;;4.00;;
4650;SDS011;2338;49.602;8.722;2023-06-14T12:22:11;8.20;;;4.27;;
4650;SDS011;2338;49.602;8.722;2023-06-14T12:24:57;8.13;;;3.63;;
4650;SDS011;2338;49.602;8.722;2023-06-14T12:27:42;6.20;;;3.87;;
4650;SDS011;2338;49.602;8.722;2023-06-14T12:30:28;6.70;;;3.93;;
4650;SDS011;2338;49.602;8.722;2023-06-14T12:33:15;10.43;;;3.00;;
4650;SDS011;2338;49.602;8.722;2023-06-14T12:36:02;5.47;;;4.00;;
4650;SDS011;2338;49.602;8.722;2023-06-14T12:38:48;5.23;;;3.83;;
4650;SDS011;2338;49.602;8.722;2023-06-14T12:41:37;15.83;;;4.43;;
4650;SDS011;2338;49.602;8.722;2023-06-14T12:44:25;5.70;;;3.80;;
4650;SDS011;2338;49.602;8.722;2023-06-14T12:47:10;6.20;;;4.33;;
4650;SDS011;2338;49.602;8.722;2023-06-14T12:49:58;6.00;;;4.40;;
4650;SDS011;2338;49.602;8.722;2023-06-14T12:52:43;7.03;;;3.80;;
4650;SDS011;2338;49.602;8.722;2023-06-14T12:55:29;5.73;;;3.30;;
4650;SDS011;2338;49.602;8.722;2023-06-14T12:58:14;5.90;;;3.90;;
4650;SDS011;2338;49.602;8.722;2023-06-14T13:01:00;6.30;;;3.80;;
4650;SDS011;2338;49.602;8.722;2023-06-14T13:03:46;5.07;;;4.23;;
4650;SDS011;2338;49.602;8.722;2023-06-14T13:06:34;6.70;;;4.00;;
4650;SDS011;2338;49.602;8.722;2023-06-14T13:09:20;4.60;;;3.90;;
4650;SDS011;2338;49.602;8.722;2023-06-14T13:12:06;6.73;;;4.60;;
4650;SDS011;2338;49.602;8.722;2023-06-14T13:14:52;6.17;;;4.50;;
4650;SDS011;2338;49.602;8.722;2023-06-14T13:17:38;5.50;;;3.97;;
4650;SDS011;2338;49.602;8.722;2023-06-14T13:20:23;6.30;;;4.17;;
4650;SDS011;2338;49.602;8.722;2023-06-14T13:23:10;8.10;;;4.20;;
4650;SDS011;2338;49.602;8.722;2023-06-14T13:25:56;5.73;;;4.73;;
4650;SDS011;2338;49.602;8.722;2023-06-14T13:28:42;6.80;;;4.00;;
4650;SDS011;2338;49.602;8.722;2023-06-14T13:31:27;6.00;;;4.17;;
4650;SDS011;2338;49.602;8.722;2023-06-14T13:34:13;7.10;;;4.53;;
4650;SDS011;2338;49.602;8.722;2023-06-14T13:36:59;6.90;;;3.80;;
4650;SDS011;2338;49.602;8.722;2023-06-14T13:39:46;5.80;;;3.83;;
4650;SDS011;2338;49.602;8.722;2023-06-14T13:42:31;17.47;;;5.87;;
4650;SDS011;2338;49.602;8.722;2023-06-14T13:45:17;4.97;;;4.20;;
4650;SDS011;2338;49.602;8.722;2023-06-14T13:48:03;5.40;;;4.03;;
4650;SDS011;2338;49.602;8.722;2023-06-14T13:50:49;26.87;;;7.30;;
4650;SDS011;2338;49.602;8.722;2023-06-14T13:53:34;16.73;;;5.60;;
4650;SDS011;2338;49.602;8.722;2023-06-14T13:56:21;5.20;;;3.83;;
4650;SDS011;2338;49.602;8.722;2023-06-14T13:59:08;7.43;;;4.40;;
4650;SDS011;2338;49.602;8.722;2023-06-14T14:01:54;6.00;;;4.27;;
4650;SDS011;2338;49.602;8.722;2023-06-14T14:04:40;6.57;;;3.80;;
4650;SDS011;2338;49.602;8.722;2023-06-14T14:07:26;5.50;;;3.80;;
4650;SDS011;2338;49.602;8.722;2023-06-14T14:10:13;5.57;;;4.20;;
4650;SDS011;2338;49.602;8.722;2023-06-14T14:13:00;6.30;;;4.50;;
4650;SDS011;2338;49.602;8.722;2023-06-14T14:15:45;5.57;;;4.50;;
4650;SDS011;2338;49.602;8.722;2023-06-14T14:18:30;6.40;;;4.40;;
4650;SDS011;2338;49.602;8.722;2023-06-14T14:21:16;6.40;;;4.00;;
4650;SDS011;2338;49.602;8.722;2023-06-14T14:24:02;8.83;;;4.60;;
4650;SDS011;2338;49.602;8.722;2023-06-14T14:26:47;15.60;;;10.40;;
4650;SDS011;2338;49.602;8.722;2023-06-14T14:29:35;9.67;;;6.67;;
4650;SDS011;2338;49.602;8.722;2023-06-14T14:32:20;9.83;;;7.67;;
4650;SDS011;2338;49.602;8.722;2023-06-14T14:35:06;6.60;;;4.30;;
4650;SDS011;2338;49.602;8.722;2023-06-14T14:37:52;5.50;;;3.67;;
4650;SDS011;2338;49.602;8.722;2023-06-14T14:40:38;9.97;;;3.60;;
4650;SDS011;2338;49.602;8.722;2023-06-14T14:43:24;6.13;;;3.67;;
4650;SDS011;2338;49.602;8.722;2023-06-14T14:46:12;7.00;;;3.40;;
4650;SDS011;2338;49.602;8.722;2023-06-14T14:48:58;8.23;;;4.37;;
4650;SDS011;2338;49.602;8.722;2023-06-14T14:51:43;6.47;;;4.43;;
4650;SDS011;2338;49.602;8.722;2023-06-14T14:54:29;4.70;;;3.83;;
4650;SDS011;2338;49.602;8.722;2023-06-14T14:57:14;7.63;;;3.90;;
4650;SDS011;2338;49.602;8.722;2023-06-14T15:00:00;4.17;;;3.70;;
4650;SDS011;2338;49.602;8.722;2023-06-14T15:02:47;5.53;;;4.50;;
4650;SDS011;2338;49.602;8.722;2023-06-14T15:05:32;5.00;;;4.23;;
4650;SDS011;2338;49.602;8.722;2023-06-14T15:08:18;5.80;;;3.93;;
4650;SDS011;2338;49.602;8.722;2023-06-14T15:11:04;3.80;;;3.40;;
4650;SDS011;2338;49.602;8.722;2023-06-14T15:13:50;6.70;;;4.43;;
4650;SDS011;2338;49.602;8.722;2023-06-14T15:16:35;4.80;;;3.73;;
4650;SDS011;2338;49.602;8.722;2023-06-14T15:19:22;9.10;;;4.20;;
4650;SDS011;2338;49.602;8.722;2023-06-14T15:22:08;8.00;;;4.07;;
4650;SDS011;2338;49.602;8.722;2023-06-14T15:24:53;12.43;;;4.30;;
4650;SDS011;2338;49.602;8.722;2023-06-14T15:27:39;4.23;;;3.67;;
4650;SDS011;2338;49.602;8.722;2023-06-14T15:30:24;5.67;;;4.27;;
4650;SDS011;2338;49.602;8.722;2023-06-14T15:33:10;12.43;;;3.90;;
4650;SDS011;2338;49.602;8.722;2023-06-14T15:35:57;9.60;;;4.03;;
4650;SDS011;2338;49.602;8.722;2023-06-14T15:38:42;5.23;;;3.53;;
4650;SDS011;2338;49.602;8.722;2023-06-14T15:41:28;6.10;;;3.73;;
4650;SDS011;2338;49.602;8.722;2023-06-14T15:44:13;4.10;;;3.33;;
4650;SDS011;2338;49.602;8.722;2023-06-14T15:46:59;8.00;;;3.60;;
4650;SDS011;2338;49.602;8.722;2023-06-14T15:49:44;6.43;;;4.00;;
4650;SDS011;2338;49.602;8.722;2023-06-14T15:52:31;11.00;;;3.40;;
4650;SDS011;2338;49.602;8.722;2023-06-14T15:55:16;4.83;;;3.63;;
4650;SDS011;2338;49.602;8.722;2023-06-14T15:58:02;5.83;;;2.80;;
4650;SDS011;2338;49.602;8.722;2023-06-14T16:00:48;5.20;;;4.00;;
4650;SDS011;2338;49.602;8.722;2023-06-14T16:03:33;5.70;;;3.40;;
4650;SDS011;2338;49.602;8.722;2023-06-14T16:06:19;4.70;;;3.50;;
4650;SDS011;2338;49.602;8.722;2023-06-14T16:09:06;10.73;;;3.37;;
4650;SDS011;2338;49.602;8.722;2023-06-14T16:11:51;4.47;;;3.90;;
4650;SDS011;2338;49.602;8.722;2023-06-14T16:14:38;8.63;;;4.17;;
4650;SDS011;2338;49.602;8.722;2023-06-14T16:17:24;6.30;;;3.73;;
4650;SDS011;2338;49.602;8.722;2023-06-14T16:20:10;7.20;;;3.63;;
4650;SDS011;2338;49.602;8.722;2023-06-14T16:22:55;5.20;;;3.83;;
4650;SDS011;2338;49.602;8.722;2023-06-14T16:25:42;5.77;;;3.50;;
4650;SDS011;2338;49.602;8.722;2023-06-14T16:28:29;4.83;;;3.60;;
4650;SDS011;2338;49.602;8.722;2023-06-14T16:31:15;5.60;;;3.30;;
4650;SDS011;2338;49.602;8.722;2023-06-14T16:34:02;7.03;;;3.37;;
4650;SDS011;2338;49.602;8.722;2023-06-14T16:36:51;5.00;;;3.53;;
4650;SDS011;2338;49.602;8.722;2023-06-14T16:39:37;10.97;;;3.20;;
4650;SDS011;2338;49.602;8.722;2023-06-14T16:42:24;11.13;;;3.60;;
4650;SDS011;2338;49.602;8.722;2023-06-14T16:45:10;7.47;;;4.33;;
4650;SDS011;2338;49.602;8.722;2023-06-14T16:47:55;6.67;;;3.67;;
4650;SDS011;2338;49.602;8.722;2023-06-14T16:50:40;5.13;;;3.33;;
4650;SDS011;2338;49.602;8.722;2023-06-14T16:53:26;5.90;;;3.83;;
4650;SDS011;2338;49.602;8.722;2023-06-14T16:56:12;6.30;;;3.80;;
4650;SDS011;2338;49.602;8.722;2023-06-14T16:58:59;4.40;;;3.13;;
4650;SDS011;2338;49.602;8.722;2023-06-14T17:01:44;5.03;;;3.70;;
4650;SDS011;2338;49.602;8.722;2023-06-14T17:04:30;7.53;;;3.43;;
4650;SDS011;2338;49.602;8.722;2023-06-14T17:07:16;7.60;;;2.93;;
4650;SDS011;2338;49.602;8.722;2023-06-14T17:10:01;11.97;;;3.20;;
4650;SDS011;2338;49.602;8.722;2023-06-14T17:12:47;3.63;;;3.23;;
4650;SDS011;2338;49.602;8.722;2023-06-14T17:15:34;3.60;;;3.00;;